createdAt,value
2019-02-02T00:00:28.262Z,989.25
2019-02-02T00:01:28.253Z,989.20
2019-02-02T00:02:28.244Z,989.25
2019-02-02T00:03:28.240Z,989.16
2019-02-02T00:04:28.219Z,989.21
2019-02-02T00:05:28.243Z,989.20
2019-02-02T00:06:28.203Z,989.16
2019-02-02T00:07:28.186Z,989.21
2019-02-02T00:08:28.184Z,989.20
2019-02-02T00:09:28.172Z,989.19
2019-02-02T00:10:28.163Z,989.18
2019-02-02T00:11:28.172Z,989.25
2019-02-02T00:12:28.139Z,989.23
2019-02-02T00:13:28.132Z,989.21
2019-02-02T00:14:28.120Z,989.18
2019-02-02T00:15:28.110Z,989.21
2019-02-02T00:16:28.110Z,989.12
2019-02-02T00:17:28.084Z,989.11
2019-02-02T00:18:28.077Z,989.10
2019-02-02T00:19:28.176Z,989.10
2019-02-02T00:20:28.050Z,989.07
2019-02-02T00:21:28.049Z,989.05
2019-02-02T00:22:28.038Z,989.08
2019-02-02T00:23:28.067Z,989.11
2019-02-02T00:24:28.009Z,989.10
2019-02-02T00:25:27.999Z,989.10
2019-02-02T00:26:27.992Z,989.13
2019-02-02T00:27:27.977Z,989.09
2019-02-02T00:28:27.973Z,989.11
2019-02-02T00:29:27.969Z,989.11
2019-02-02T00:30:27.949Z,989.07
2019-02-02T00:31:27.939Z,989.14
2019-02-02T00:32:27.934Z,989.16
2019-02-02T00:33:27.914Z,989.12
2019-02-02T00:34:27.903Z,989.13
2019-02-02T00:35:27.897Z,989.11
2019-02-02T00:36:27.889Z,989.13
2019-02-02T00:37:27.908Z,989.13
2019-02-02T00:38:27.867Z,989.13
2019-02-02T00:39:27.852Z,989.13
2019-02-02T00:40:27.845Z,989.13
2019-02-02T00:41:27.837Z,989.16
2019-02-02T00:42:27.821Z,989.13
2019-02-02T00:43:27.815Z,989.11
2019-02-02T00:44:27.802Z,989.07
2019-02-02T00:45:27.792Z,989.10
2019-02-02T00:46:27.775Z,989.08
2019-02-02T00:47:27.772Z,989.10
2019-02-02T00:48:27.798Z,989.12
2019-02-02T00:49:27.745Z,989.09
2019-02-02T00:50:27.741Z,989.12
2019-02-02T00:51:27.724Z,989.10
2019-02-02T00:52:27.715Z,989.14
2019-02-02T00:53:27.705Z,989.13
2019-02-02T00:54:27.703Z,989.16
2019-02-02T00:55:27.684Z,989.17
2019-02-02T00:56:27.672Z,989.19
2019-02-02T00:57:27.661Z,989.21
2019-02-02T00:58:27.653Z,989.26
2019-02-02T00:59:27.677Z,989.24
2019-02-02T01:00:27.638Z,989.25
2019-02-02T01:01:27.623Z,989.23
2019-02-02T01:02:27.619Z,989.19
2019-02-02T01:03:27.600Z,989.27
2019-02-02T01:04:27.588Z,989.28
2019-02-02T01:05:27.586Z,989.30
2019-02-02T01:06:27.572Z,989.27
2019-02-02T01:07:27.556Z,989.28
2019-02-02T01:08:27.545Z,989.24
2019-02-02T01:09:27.535Z,989.21
2019-02-02T01:10:27.571Z,989.27
2019-02-02T01:11:27.515Z,989.26
2019-02-02T01:12:27.504Z,989.27
2019-02-02T01:13:27.496Z,989.26
2019-02-02T01:14:27.487Z,989.22
2019-02-02T01:15:27.476Z,989.24
2019-02-02T01:16:27.476Z,989.23
2019-02-02T01:17:27.455Z,989.25
2019-02-02T01:18:27.447Z,989.27
2019-02-02T01:19:27.431Z,989.32
2019-02-02T01:20:27.423Z,989.32
2019-02-02T01:21:27.417Z,989.29
2019-02-02T01:22:27.399Z,989.34
2019-02-02T01:23:27.388Z,989.32
2019-02-02T01:24:27.377Z,989.32
2019-02-02T01:25:27.367Z,989.31
2019-02-02T01:26:27.368Z,989.34
2019-02-02T01:27:27.353Z,989.26
2019-02-02T01:28:27.339Z,989.22
2019-02-02T01:29:27.327Z,989.25
2019-02-02T01:30:27.312Z,989.22
2019-02-02T01:31:27.304Z,989.21
2019-02-02T01:32:27.323Z,989.25
2019-02-02T01:33:27.286Z,989.28
2019-02-02T01:34:27.276Z,989.25
2019-02-02T01:35:27.264Z,989.23
2019-02-02T01:36:27.255Z,989.24
2019-02-02T01:37:27.239Z,989.26
2019-02-02T01:38:27.270Z,989.28
2019-02-02T01:39:27.217Z,989.31
2019-02-02T01:40:27.208Z,989.35
2019-02-02T01:41:27.196Z,989.39
2019-02-02T01:42:27.210Z,989.42
2019-02-02T01:43:27.176Z,989.36
2019-02-02T01:44:27.180Z,989.35
2019-02-02T01:45:27.165Z,989.35
2019-02-02T01:46:27.150Z,989.32
2019-02-02T01:47:27.139Z,989.30
2019-02-02T01:48:27.135Z,989.26
2019-02-02T01:49:27.115Z,989.28
2019-02-02T01:50:27.107Z,989.26
2019-02-02T01:51:27.096Z,989.25
2019-02-02T01:52:27.087Z,989.27
2019-02-02T01:53:27.086Z,989.18
2019-02-02T01:54:27.064Z,989.22
2019-02-02T01:55:27.050Z,989.17
2019-02-02T01:56:27.045Z,989.17
2019-02-02T01:57:27.034Z,989.16
2019-02-02T01:58:27.069Z,989.17
2019-02-02T01:59:27.008Z,989.11
2019-02-02T02:00:27.002Z,989.12
2019-02-02T02:01:26.986Z,989.07
2019-02-02T02:02:26.981Z,989.03
2019-02-02T02:03:26.965Z,989.02
2019-02-02T02:04:26.973Z,989.00
2019-02-02T02:05:26.947Z,989.03
2019-02-02T02:06:26.940Z,989.01
2019-02-02T02:07:26.923Z,989.02
2019-02-02T02:08:26.917Z,989.04
2019-02-02T02:09:26.916Z,989.04
2019-02-02T02:10:26.891Z,989.07
2019-02-02T02:11:26.883Z,989.05
2019-02-02T02:12:26.875Z,989.12
2019-02-02T02:13:26.875Z,989.11
2019-02-02T02:14:26.849Z,989.10
2019-02-02T02:15:26.846Z,989.11
2019-02-02T02:16:26.829Z,989.10
2019-02-02T02:17:26.820Z,989.11
2019-02-02T02:18:26.814Z,989.12
2019-02-02T02:19:26.804Z,989.10
2019-02-02T02:20:26.824Z,989.13
2019-02-02T02:21:26.775Z,989.10
2019-02-02T02:22:26.765Z,989.11
2019-02-02T02:23:26.754Z,989.04
2019-02-02T02:24:26.750Z,989.05
2019-02-02T02:25:26.734Z,988.99
2019-02-02T02:26:26.735Z,988.97
2019-02-02T02:27:26.712Z,988.95
2019-02-02T02:28:28.192Z,988.94
2019-02-02T02:29:26.696Z,988.97
2019-02-02T02:30:26.691Z,988.97
2019-02-02T02:31:26.670Z,988.94
2019-02-02T02:32:26.677Z,988.93
2019-02-02T02:33:26.655Z,988.96
2019-02-02T02:34:26.646Z,988.88
2019-02-02T02:35:26.664Z,988.86
2019-02-02T02:36:26.632Z,988.83
2019-02-02T02:37:26.608Z,988.83
2019-02-02T02:38:26.599Z,988.76
2019-02-02T02:39:26.594Z,988.73
2019-02-02T02:40:26.587Z,988.75
2019-02-02T02:41:26.581Z,988.72
2019-02-02T02:42:26.568Z,988.73
2019-02-02T02:43:26.546Z,988.79
2019-02-02T02:44:26.539Z,988.82
2019-02-02T02:45:26.530Z,988.82
2019-02-02T02:46:26.530Z,988.78
2019-02-02T02:47:26.508Z,988.76
2019-02-02T02:48:26.508Z,988.77
2019-02-02T02:49:26.482Z,988.77
2019-02-02T02:50:26.472Z,988.72
2019-02-02T02:51:26.461Z,988.72
2019-02-02T02:52:26.458Z,988.74
2019-02-02T02:53:26.449Z,988.79
2019-02-02T02:54:26.429Z,988.78
2019-02-02T02:55:26.423Z,988.80
2019-02-02T02:56:26.420Z,988.82
2019-02-02T02:57:26.408Z,988.85
2019-02-02T02:58:26.392Z,988.81
2019-02-02T02:59:26.390Z,988.75
2019-02-02T03:00:26.365Z,988.72
2019-02-02T03:01:26.360Z,988.67
2019-02-02T03:02:26.357Z,988.62
2019-02-02T03:03:26.337Z,988.57
2019-02-02T03:04:26.331Z,988.50
2019-02-02T03:05:26.326Z,988.48
2019-02-02T03:06:26.310Z,988.44
2019-02-02T03:07:26.300Z,988.49
2019-02-02T03:08:26.296Z,988.49
2019-02-02T03:09:26.278Z,988.46
2019-02-02T03:10:26.289Z,988.45
2019-02-02T03:11:26.256Z,988.49
2019-02-02T03:12:26.245Z,988.48
2019-02-02T03:13:26.280Z,988.37
2019-02-02T03:14:26.222Z,988.37
2019-02-02T03:15:26.212Z,988.37
2019-02-02T03:16:26.203Z,988.39
2019-02-02T03:17:26.190Z,988.40
2019-02-02T03:18:26.175Z,988.42
2019-02-02T03:19:26.201Z,988.44
2019-02-02T03:20:26.155Z,988.44
2019-02-02T03:21:26.271Z,988.50
2019-02-02T03:22:26.141Z,988.45
2019-02-02T03:23:26.132Z,988.47
2019-02-02T03:24:26.113Z,988.47
2019-02-02T03:25:26.141Z,988.44
2019-02-02T03:26:26.117Z,988.40
2019-02-02T03:27:26.088Z,988.39
2019-02-02T03:28:26.069Z,988.34
2019-02-02T03:29:26.071Z,988.36
2019-02-02T03:30:26.065Z,988.34
2019-02-02T03:31:26.057Z,988.39
2019-02-02T03:32:26.033Z,988.43
2019-02-02T03:33:26.020Z,988.40
2019-02-02T03:34:26.137Z,988.47
2019-02-02T03:35:26.037Z,988.45
2019-02-02T03:36:25.986Z,988.38
2019-02-02T03:37:25.975Z,988.43
2019-02-02T03:38:25.972Z,988.42
2019-02-02T03:39:25.965Z,988.48
2019-02-02T03:40:25.948Z,988.45
2019-02-02T03:41:25.954Z,988.46
2019-02-02T03:42:25.922Z,988.53
2019-02-02T03:43:25.937Z,988.50
2019-02-02T03:44:25.907Z,988.47
2019-02-02T03:45:25.897Z,988.50
2019-02-02T03:46:25.888Z,988.52
2019-02-02T03:47:25.890Z,988.54
2019-02-02T03:48:25.863Z,988.59
2019-02-02T03:49:25.855Z,988.59
2019-02-02T03:50:25.870Z,988.62
2019-02-02T03:51:25.989Z,988.63
2019-02-02T03:52:25.823Z,988.63
2019-02-02T03:53:25.821Z,988.66
2019-02-02T03:54:25.794Z,988.63
2019-02-02T03:55:25.789Z,988.66
2019-02-02T03:56:25.783Z,988.59
2019-02-02T03:57:25.777Z,988.63
2019-02-02T03:58:25.771Z,988.69
2019-02-02T03:59:25.748Z,988.71
2019-02-02T04:00:25.737Z,988.76
2019-02-02T04:01:25.726Z,988.77
2019-02-02T04:02:25.720Z,988.76
2019-02-02T04:03:25.730Z,988.71
2019-02-02T04:04:25.690Z,988.72
2019-02-02T04:05:25.713Z,988.73
2019-02-02T04:06:25.668Z,988.76
2019-02-02T04:07:25.661Z,988.84
2019-02-02T04:08:25.650Z,988.83
2019-02-02T04:09:25.651Z,988.78
2019-02-02T04:10:25.634Z,988.73
2019-02-02T04:11:25.622Z,988.65
2019-02-02T04:12:25.619Z,988.63
2019-02-02T04:13:25.600Z,988.67
2019-02-02T04:14:25.613Z,988.68
2019-02-02T04:15:25.579Z,988.65
2019-02-02T04:16:25.568Z,988.65
2019-02-02T04:17:25.558Z,988.70
2019-02-02T04:18:25.545Z,988.70
2019-02-02T04:19:25.530Z,988.70
2019-02-02T04:20:25.554Z,988.70
2019-02-02T04:21:25.512Z,988.71
2019-02-02T04:22:25.506Z,988.72
2019-02-02T04:23:25.489Z,988.73
2019-02-02T04:24:25.486Z,988.76
2019-02-02T04:25:25.473Z,988.77
2019-02-02T04:26:25.472Z,988.76
2019-02-02T04:27:25.452Z,988.74
2019-02-02T04:28:25.435Z,988.71
2019-02-02T04:29:25.428Z,988.69
2019-02-02T04:30:25.450Z,988.66
2019-02-02T04:31:25.409Z,988.61
2019-02-02T04:32:25.395Z,988.53
2019-02-02T04:33:25.383Z,988.56
2019-02-02T04:34:25.372Z,988.55
2019-02-02T04:35:25.477Z,988.55
2019-02-02T04:36:25.363Z,988.53
2019-02-02T04:37:25.348Z,988.55
2019-02-02T04:38:25.331Z,988.62
2019-02-02T04:39:25.491Z,988.66
2019-02-02T04:40:25.311Z,988.66
2019-02-02T04:41:25.315Z,988.69
2019-02-02T04:42:25.297Z,988.74
2019-02-02T04:43:25.284Z,988.76
2019-02-02T04:44:25.273Z,988.85
2019-02-02T04:45:25.266Z,988.86
2019-02-02T04:46:25.263Z,988.88
2019-02-02T04:47:25.250Z,988.90
2019-02-02T04:48:25.226Z,988.86
2019-02-02T04:49:25.214Z,988.79
2019-02-02T04:50:25.213Z,988.73
2019-02-02T04:51:25.194Z,988.70
2019-02-02T04:52:25.214Z,988.67
2019-02-02T04:53:25.180Z,988.67
2019-02-02T04:54:25.166Z,988.63
2019-02-02T04:55:25.159Z,988.57
2019-02-02T04:56:32.973Z,988.63
2019-02-02T04:57:25.134Z,988.59
2019-02-02T04:58:25.135Z,988.53
2019-02-02T04:59:29.233Z,988.47
2019-02-02T05:00:25.104Z,988.45
2019-02-02T05:01:25.091Z,988.37
2019-02-02T05:02:25.084Z,988.27
2019-02-02T05:03:25.079Z,988.19
2019-02-02T05:04:25.062Z,988.19
2019-02-02T05:05:25.048Z,988.20
2019-02-02T05:06:25.038Z,988.19
2019-02-02T05:07:25.026Z,988.17
2019-02-02T05:08:25.025Z,988.20
2019-02-02T05:09:25.010Z,988.12
2019-02-02T05:10:24.994Z,988.19
2019-02-02T05:11:24.984Z,988.15
2019-02-02T05:12:24.974Z,988.13
2019-02-02T05:13:24.988Z,988.19
2019-02-02T05:14:24.957Z,988.21
2019-02-02T05:15:24.947Z,988.20
2019-02-02T05:16:24.932Z,988.23
2019-02-02T05:17:24.927Z,988.34
2019-02-02T05:18:24.915Z,988.33
2019-02-02T05:19:24.919Z,988.41
2019-02-02T05:20:24.896Z,988.44
2019-02-02T05:21:24.880Z,988.51
2019-02-02T05:22:24.875Z,988.51
2019-02-02T05:23:24.865Z,988.55
2019-02-02T05:24:24.848Z,988.56
2019-02-02T05:25:24.851Z,988.51
2019-02-02T05:26:24.827Z,988.51
2019-02-02T05:27:24.816Z,988.58
2019-02-02T05:28:24.812Z,988.61
2019-02-02T05:29:24.798Z,988.63
2019-02-02T05:30:24.801Z,988.60
2019-02-02T05:31:24.779Z,988.59
2019-02-02T05:32:24.768Z,988.55
2019-02-02T05:33:24.755Z,988.56
2019-02-02T05:34:24.762Z,988.49
2019-02-02T05:35:24.740Z,988.46
2019-02-02T05:36:24.723Z,988.43
2019-02-02T05:37:24.711Z,988.37
2019-02-02T05:38:24.707Z,988.30
2019-02-02T05:39:24.692Z,988.21
2019-02-02T05:40:24.706Z,988.20
2019-02-02T05:41:24.671Z,988.20
2019-02-02T05:42:24.663Z,988.30
2019-02-02T05:43:24.655Z,988.39
2019-02-02T05:44:24.638Z,988.41
2019-02-02T05:45:24.671Z,988.46
2019-02-02T05:46:24.624Z,988.42
2019-02-02T05:47:24.607Z,988.38
2019-02-02T05:48:24.596Z,988.37
2019-02-02T05:49:24.593Z,988.34
2019-02-02T05:50:24.620Z,988.32
2019-02-02T05:51:24.568Z,988.40
2019-02-02T05:52:24.557Z,988.43
2019-02-02T05:53:24.543Z,988.48
2019-02-02T05:54:24.538Z,988.48
2019-02-02T05:55:24.535Z,988.48
2019-02-02T05:56:24.521Z,988.53
2019-02-02T05:57:24.502Z,988.58
2019-02-02T05:58:24.505Z,988.64
2019-02-02T05:59:24.482Z,988.66
2019-02-02T06:00:24.474Z,988.65
2019-02-02T06:01:24.476Z,988.69
2019-02-02T06:02:24.458Z,988.71
2019-02-02T06:03:24.449Z,988.71
2019-02-02T06:04:24.446Z,988.73
2019-02-02T06:05:24.430Z,988.76
2019-02-02T06:06:24.424Z,988.82
2019-02-02T06:07:24.405Z,988.80
2019-02-02T06:08:24.395Z,988.81
2019-02-02T06:09:24.386Z,988.76
2019-02-02T06:10:24.376Z,988.78
2019-02-02T06:11:24.368Z,988.76
2019-02-02T06:12:24.352Z,988.73
2019-02-02T06:13:24.336Z,988.74
2019-02-02T06:14:24.330Z,988.74
2019-02-02T06:15:24.316Z,988.75
2019-02-02T06:16:24.310Z,988.75
2019-02-02T06:17:24.291Z,988.79
2019-02-02T06:18:24.289Z,988.80
2019-02-02T06:19:24.271Z,988.90
2019-02-02T06:20:24.265Z,988.86
2019-02-02T06:21:24.284Z,988.86
2019-02-02T06:22:24.257Z,988.83
2019-02-02T06:23:24.229Z,988.80
2019-02-02T06:24:24.218Z,988.82
2019-02-02T06:25:24.215Z,988.88
2019-02-02T06:26:24.204Z,988.85
2019-02-02T06:27:24.199Z,988.86
2019-02-02T06:28:24.181Z,988.88
2019-02-02T06:29:24.183Z,988.94
2019-02-02T06:30:24.157Z,988.95
2019-02-02T06:31:24.151Z,988.95
2019-02-02T06:32:24.165Z,988.94
2019-02-02T06:33:24.129Z,988.97
2019-02-02T06:34:24.114Z,988.96
2019-02-02T06:35:24.110Z,989.00
2019-02-02T06:36:24.091Z,988.96
2019-02-02T06:37:24.083Z,989.06
2019-02-02T06:38:24.081Z,989.07
2019-02-02T06:39:24.067Z,989.04
2019-02-02T06:40:24.169Z,989.04
2019-02-02T06:41:24.047Z,989.07
2019-02-02T06:42:24.034Z,989.06
2019-02-02T06:43:24.048Z,989.06
2019-02-02T06:44:24.014Z,989.07
2019-02-02T06:45:24.017Z,989.06
2019-02-02T06:46:23.996Z,989.08
2019-02-02T06:47:23.977Z,989.08
2019-02-02T06:48:23.995Z,989.06
2019-02-02T06:49:23.971Z,989.04
2019-02-02T06:50:23.959Z,989.00
2019-02-02T06:51:23.949Z,988.95
2019-02-02T06:52:23.940Z,988.96
2019-02-02T06:53:23.936Z,988.92
2019-02-02T06:54:24.008Z,988.94
2019-02-02T06:55:23.899Z,988.92
2019-02-02T06:56:23.888Z,988.82
2019-02-02T06:57:23.873Z,988.81
2019-02-02T06:58:23.870Z,988.74
2019-02-02T06:59:23.851Z,988.72
2019-02-02T07:00:26.329Z,988.68
2019-02-02T07:01:23.830Z,988.69
2019-02-02T07:02:23.824Z,988.70
2019-02-02T07:03:23.813Z,988.68
2019-02-02T07:04:23.800Z,988.66
2019-02-02T07:05:23.831Z,988.67
2019-02-02T07:06:23.780Z,988.65
2019-02-02T07:07:23.768Z,988.72
2019-02-02T07:08:23.766Z,988.76
2019-02-02T07:09:23.751Z,988.80
2019-02-02T07:10:23.743Z,988.81
2019-02-02T07:11:23.737Z,988.80
2019-02-02T07:12:23.713Z,988.78
2019-02-02T07:13:23.716Z,988.77
2019-02-02T07:14:23.692Z,988.77
2019-02-02T07:15:23.683Z,988.79
2019-02-02T07:16:23.673Z,988.87
2019-02-02T07:17:23.676Z,988.88
2019-02-02T07:18:23.660Z,988.90
2019-02-02T07:19:23.645Z,988.92
2019-02-02T07:20:23.669Z,988.96
2019-02-02T07:21:23.624Z,988.97
2019-02-02T07:22:23.623Z,989.00
2019-02-02T07:23:23.605Z,988.99
2019-02-02T07:24:23.587Z,989.02
2019-02-02T07:25:23.578Z,989.06
2019-02-02T07:26:23.574Z,989.11
2019-02-02T07:27:23.570Z,989.15
2019-02-02T07:28:23.551Z,989.18
2019-02-02T07:29:23.535Z,989.22
2019-02-02T07:30:28.867Z,989.24
2019-02-02T07:31:24.528Z,989.25
2019-02-02T07:32:23.513Z,989.32
2019-02-02T07:33:23.496Z,989.34
2019-02-02T07:34:23.489Z,989.31
2019-02-02T07:35:23.475Z,989.30
2019-02-02T07:36:23.462Z,989.33
2019-02-02T07:37:23.455Z,989.32
2019-02-02T07:38:23.446Z,989.31
2019-02-02T07:39:23.439Z,989.30
2019-02-02T07:40:23.422Z,989.26
2019-02-02T07:41:23.416Z,989.26
2019-02-02T07:42:23.397Z,989.33
2019-02-02T07:43:23.399Z,989.40
2019-02-02T07:44:23.490Z,989.43
2019-02-02T07:45:23.368Z,989.45
2019-02-02T07:46:23.362Z,989.44
2019-02-02T07:47:23.351Z,989.46
2019-02-02T07:48:23.351Z,989.45
2019-02-02T07:49:30.367Z,989.50
2019-02-02T07:50:23.316Z,989.61
2019-02-02T07:51:23.311Z,989.68
2019-02-02T07:52:23.295Z,989.67
2019-02-02T07:53:23.280Z,989.63
2019-02-02T07:54:23.275Z,989.61
2019-02-02T07:55:23.267Z,989.54
2019-02-02T07:56:23.256Z,989.43
2019-02-02T07:57:23.242Z,989.46
2019-02-02T07:58:23.227Z,989.45
2019-02-02T07:59:23.222Z,989.47
2019-02-02T08:00:23.219Z,989.45
2019-02-02T08:01:23.201Z,989.44
2019-02-02T08:02:23.190Z,989.50
2019-02-02T08:03:23.180Z,989.52
2019-02-02T08:04:23.171Z,989.52
2019-02-02T08:05:23.179Z,989.48
2019-02-02T08:06:23.150Z,989.48
2019-02-02T08:07:23.133Z,989.39
2019-02-02T08:08:23.122Z,989.42
2019-02-02T08:09:23.117Z,989.43
2019-02-02T08:10:23.109Z,989.41
2019-02-02T08:11:23.099Z,989.46
2019-02-02T08:12:23.087Z,989.42
2019-02-02T08:13:23.077Z,989.46
2019-02-02T08:14:23.127Z,989.45
2019-02-02T08:15:23.056Z,989.47
2019-02-02T08:16:23.040Z,989.50
2019-02-02T08:17:23.028Z,989.49
2019-02-02T08:18:23.129Z,989.47
2019-02-02T08:19:25.632Z,989.54
2019-02-02T08:20:23.009Z,989.58
2019-02-02T08:21:22.983Z,989.61
2019-02-02T08:22:22.977Z,989.67
2019-02-02T08:23:22.968Z,989.76
2019-02-02T08:24:22.959Z,989.81
2019-02-02T08:25:22.948Z,989.81
2019-02-02T08:26:22.941Z,989.81
2019-02-02T08:27:23.010Z,989.73
2019-02-02T08:28:22.911Z,989.81
2019-02-02T08:29:22.916Z,989.73
2019-02-02T08:30:22.902Z,989.76
2019-02-02T08:31:22.907Z,989.75
2019-02-02T08:32:22.870Z,989.73
2019-02-02T08:33:22.871Z,989.69
2019-02-02T08:34:22.860Z,989.70
2019-02-02T08:35:22.832Z,989.68
2019-02-02T08:36:22.829Z,989.70
2019-02-02T08:37:22.822Z,989.75
2019-02-02T08:38:22.808Z,989.79
2019-02-02T08:39:29.277Z,989.73
2019-02-02T08:40:23.838Z,989.72
2019-02-02T08:41:22.773Z,989.73
2019-02-02T08:42:22.757Z,989.77
2019-02-02T08:43:22.752Z,989.79
2019-02-02T08:44:22.739Z,989.80
2019-02-02T08:45:22.736Z,989.78
2019-02-02T08:46:22.721Z,989.72
2019-02-02T08:47:22.706Z,989.67
2019-02-02T08:48:22.693Z,989.66
2019-02-02T08:49:22.697Z,989.67
2019-02-02T08:50:22.694Z,989.64
2019-02-02T08:51:22.661Z,989.66
2019-02-02T08:52:22.666Z,989.70
2019-02-02T08:53:22.659Z,989.66
2019-02-02T08:54:22.660Z,989.73
2019-02-02T08:55:23.570Z,989.71
2019-02-02T08:56:22.653Z,989.69
2019-02-02T08:57:22.627Z,989.69
2019-02-02T08:58:22.717Z,989.74
2019-02-02T08:59:22.574Z,989.76
2019-02-02T09:00:22.578Z,989.78
2019-02-02T09:01:22.558Z,989.81
2019-02-02T09:02:22.553Z,989.95
2019-02-02T09:03:22.542Z,989.99
2019-02-02T09:04:22.587Z,990.01
2019-02-02T09:05:22.565Z,989.99
2019-02-02T09:06:22.509Z,989.96
2019-02-02T09:07:22.492Z,990.02
2019-02-02T09:08:22.483Z,990.08
2019-02-02T09:09:22.481Z,990.11
2019-02-02T09:10:22.456Z,990.09
2019-02-02T09:11:22.527Z,990.06
2019-02-02T09:12:22.435Z,990.02
2019-02-02T09:13:22.430Z,990.02
2019-02-02T09:14:22.418Z,990.01
2019-02-02T09:15:22.409Z,990.04
2019-02-02T09:16:22.404Z,990.08
2019-02-02T09:17:22.505Z,990.12
2019-02-02T09:18:22.384Z,990.09
2019-02-02T09:19:22.366Z,990.19
2019-02-02T09:20:22.350Z,990.21
2019-02-02T09:21:22.338Z,990.25
2019-02-02T09:22:22.328Z,990.24
2019-02-02T09:23:22.362Z,990.26
2019-02-02T09:24:22.308Z,990.24
2019-02-02T09:25:22.298Z,990.25
2019-02-02T09:26:22.287Z,990.26
2019-02-02T09:27:22.284Z,990.23
2019-02-02T09:28:22.262Z,990.24
2019-02-02T09:29:22.261Z,990.20
2019-02-02T09:30:22.251Z,990.17
2019-02-02T09:31:22.240Z,990.22
2019-02-02T09:32:22.225Z,990.21
2019-02-02T09:33:22.249Z,990.24
2019-02-02T09:34:22.208Z,990.27
2019-02-02T09:35:22.188Z,990.25
2019-02-02T09:36:22.184Z,990.26
2019-02-02T09:37:22.172Z,990.23
2019-02-02T09:38:22.164Z,990.21
2019-02-02T09:39:22.189Z,990.19
2019-02-02T09:40:22.134Z,990.22
2019-02-02T09:41:22.129Z,990.19
2019-02-02T09:42:22.120Z,990.19
2019-02-02T09:43:22.114Z,990.21
2019-02-02T09:44:22.100Z,990.19
2019-02-02T09:45:22.092Z,990.22
2019-02-02T09:46:22.076Z,990.26
2019-02-02T09:47:22.062Z,990.25
2019-02-02T09:48:22.064Z,990.27
2019-02-02T09:49:22.047Z,990.28
2019-02-02T09:50:22.042Z,990.27
2019-02-02T09:51:22.033Z,990.27
2019-02-02T09:52:22.011Z,990.31
2019-02-02T09:53:21.996Z,990.33
2019-02-02T09:54:26.529Z,990.31
2019-02-02T09:55:22.975Z,990.28
2019-02-02T09:56:21.978Z,990.23
2019-02-02T09:57:21.953Z,990.23
2019-02-02T09:58:21.948Z,990.29
2019-02-02T09:59:21.934Z,990.35
2019-02-02T10:00:21.927Z,990.37
2019-02-02T10:01:27.688Z,990.38
2019-02-02T10:02:22.914Z,990.41
2019-02-02T10:03:21.897Z,990.43
2019-02-02T10:04:21.884Z,990.35
2019-02-02T10:05:21.873Z,990.38
2019-02-02T10:06:21.867Z,990.40
2019-02-02T10:07:21.871Z,990.42
2019-02-02T10:08:21.837Z,990.38
2019-02-02T10:09:21.825Z,990.42
2019-02-02T10:10:21.814Z,990.39
2019-02-02T10:11:21.810Z,990.33
2019-02-02T10:12:21.811Z,990.31
2019-02-02T10:13:21.799Z,990.24
2019-02-02T10:14:21.772Z,990.25
2019-02-02T10:15:21.760Z,990.27
2019-02-02T10:16:21.756Z,990.32
2019-02-02T10:17:21.745Z,990.32
2019-02-02T10:18:21.773Z,990.35
2019-02-02T10:19:21.719Z,990.39
2019-02-02T10:20:21.713Z,990.36
2019-02-02T10:21:21.697Z,990.36
2019-02-02T10:22:21.686Z,990.36
2019-02-02T10:23:21.677Z,990.36
2019-02-02T10:24:21.714Z,990.33
2019-02-02T10:25:21.660Z,990.38
2019-02-02T10:26:21.659Z,990.37
2019-02-02T10:27:21.656Z,990.38
2019-02-02T10:28:21.641Z,990.37
2019-02-02T10:29:21.615Z,990.36
2019-02-02T10:30:22.876Z,990.33
2019-02-02T10:31:21.591Z,990.29
2019-02-02T10:32:21.580Z,990.27
2019-02-02T10:33:21.591Z,990.27
2019-02-02T10:34:21.599Z,990.24
2019-02-02T10:35:21.547Z,990.24
2019-02-02T10:36:21.549Z,990.20
2019-02-02T10:37:21.536Z,990.25
2019-02-02T10:38:21.517Z,990.27
2019-02-02T10:39:21.504Z,990.26
2019-02-02T10:40:21.508Z,990.25
2019-02-02T10:41:21.486Z,990.28
2019-02-02T10:42:21.480Z,990.31
2019-02-02T10:43:21.468Z,990.30
2019-02-02T10:44:21.459Z,990.30
2019-02-02T10:45:21.455Z,990.28
2019-02-02T10:46:21.434Z,990.29
2019-02-02T10:47:21.420Z,990.24
2019-02-02T10:48:21.415Z,990.30
2019-02-02T10:49:21.400Z,990.34
2019-02-02T10:50:21.435Z,990.36
2019-02-02T10:51:21.441Z,990.40
2019-02-02T10:52:21.370Z,990.39
2019-02-02T10:53:21.356Z,990.38
2019-02-02T10:54:21.361Z,990.40
2019-02-02T10:55:21.334Z,990.41
2019-02-02T10:56:28.388Z,990.41
2019-02-02T10:57:21.322Z,990.37
2019-02-02T10:58:21.304Z,990.40
2019-02-02T10:59:21.293Z,990.42
2019-02-02T11:00:21.286Z,990.44
2019-02-02T11:01:21.284Z,990.41
2019-02-02T11:02:21.264Z,990.36
2019-02-02T11:03:21.254Z,990.36
2019-02-02T11:04:21.278Z,990.36
2019-02-02T11:05:21.376Z,990.36
2019-02-02T11:06:21.401Z,990.39
2019-02-02T11:07:21.259Z,990.40
2019-02-02T11:08:21.228Z,990.37
2019-02-02T11:09:21.192Z,990.35
2019-02-02T11:10:21.281Z,990.35
2019-02-02T11:11:21.207Z,990.37
2019-02-02T11:12:21.173Z,990.34
2019-02-02T11:13:21.227Z,990.35
2019-02-02T11:14:21.144Z,990.40
2019-02-02T11:15:21.158Z,990.39
2019-02-02T11:16:21.216Z,990.41
2019-02-02T11:17:21.243Z,990.38
2019-02-02T11:18:21.140Z,990.38
2019-02-02T11:19:21.161Z,990.36
2019-02-02T11:20:21.160Z,990.33
2019-02-02T11:21:21.097Z,990.30
2019-02-02T11:22:21.191Z,990.34
2019-02-02T11:23:21.038Z,990.38
2019-02-02T11:24:21.033Z,990.33
2019-02-02T11:25:21.024Z,990.40
2019-02-02T11:26:21.038Z,990.40
2019-02-02T11:27:21.015Z,990.40
2019-02-02T11:28:21.004Z,990.38
2019-02-02T11:29:20.982Z,990.38
2019-02-02T11:30:20.986Z,990.37
2019-02-02T11:31:20.958Z,990.32
2019-02-02T11:32:20.947Z,990.29
2019-02-02T11:33:20.942Z,990.26
2019-02-02T11:34:20.922Z,990.24
2019-02-02T11:35:20.916Z,990.21
2019-02-02T11:36:20.900Z,990.22
2019-02-02T11:37:20.925Z,990.22
2019-02-02T11:38:20.887Z,990.13
2019-02-02T11:39:20.867Z,990.15
2019-02-02T11:40:20.870Z,990.12
2019-02-02T11:41:20.853Z,990.13
2019-02-02T11:42:20.840Z,990.12
2019-02-02T11:43:20.882Z,990.12
2019-02-02T11:44:20.820Z,990.18
2019-02-02T11:45:20.804Z,990.20
2019-02-02T11:46:20.802Z,990.21
2019-02-02T11:47:20.787Z,990.27
2019-02-02T11:48:20.772Z,990.28
2019-02-02T11:49:23.819Z,990.28
2019-02-02T11:50:20.750Z,990.32
2019-02-02T11:51:20.747Z,990.30
2019-02-02T11:52:23.241Z,990.29
2019-02-02T11:53:20.718Z,990.25
2019-02-02T11:54:20.743Z,990.26
2019-02-02T11:55:20.700Z,990.28
2019-02-02T11:56:20.700Z,990.31
2019-02-02T11:57:20.675Z,990.33
2019-02-02T11:58:20.664Z,990.38
2019-02-02T11:59:20.751Z,990.43
2019-02-02T12:00:20.683Z,990.44
2019-02-02T12:01:20.638Z,990.45
2019-02-02T12:02:20.631Z,990.53
2019-02-02T12:03:20.621Z,990.55
2019-02-02T12:04:20.602Z,990.59
2019-02-02T12:05:20.597Z,990.61
2019-02-02T12:06:20.596Z,990.62
2019-02-02T12:07:20.574Z,990.61
2019-02-02T12:08:20.566Z,990.59
2019-02-02T12:09:20.556Z,990.54
2019-02-02T12:10:20.550Z,990.55
2019-02-02T12:11:20.530Z,990.57
2019-02-02T12:12:20.526Z,990.59
2019-02-02T12:13:20.522Z,990.61
2019-02-02T12:14:20.503Z,990.64
2019-02-02T12:15:20.492Z,990.67
2019-02-02T12:16:20.578Z,990.69
2019-02-02T12:17:20.492Z,990.70
2019-02-02T12:18:20.458Z,990.66
2019-02-02T12:19:20.446Z,990.62
2019-02-02T12:20:20.431Z,990.60
2019-02-02T12:21:20.428Z,990.60
2019-02-02T12:22:20.409Z,990.54
2019-02-02T12:23:20.415Z,990.51
2019-02-02T12:24:20.392Z,990.50
2019-02-02T12:25:20.382Z,990.53
2019-02-02T12:26:20.372Z,990.55
2019-02-02T12:27:20.359Z,990.54
2019-02-02T12:28:20.356Z,990.53